Time;durP1;ratioP1;P1;durP2;ratioP2;P2;SDS_P1;SDS_P2;PMS_P1;PMS_P2;Temp;Humidity;BMP_temperature;BMP_pressure;BME280_temperature;BME280_humidity;BME280_pressure;Samples;Min_cycle;Max_cycle;Signal;HPM_P1;HPM_P2
2021/01/22 00:00:25;;;;;;;8.13;4.90;;;;;;;;;;5137245;27;20062;-82
2021/01/22 00:02:50;;;;;;;11.93;6.73;;;;;;;;;;5135515;27;20034;-82
2021/01/22 00:05:16;;;;;;;9.80;6.97;;;;;;;;;;5135530;27;20019;-82
2021/01/22 00:07:41;;;;;;;8.63;5.47;;;;;;;;;;5135801;27;20034;-82
2021/01/22 00:10:06;;;;;;;6.87;5.17;;;;;;;;;;5135327;27;20034;-82
2021/01/22 00:12:32;;;;;;;6.50;5.00;;;;;;;;;;5136764;27;20061;-82
2021/01/22 00:14:57;;;;;;;9.17;4.60;;;;;;;;;;5135599;27;20118;-83
2021/01/22 00:17:22;;;;;;;5.03;3.30;;;;;;;;;;5135163;27;20489;-82
2021/01/22 00:19:47;;;;;;;3.33;2.30;;;;;;;;;;5135050;27;20030;-82
2021/01/22 00:22:12;;;;;;;3.13;2.43;;;;;;;;;;5135213;27;20030;-82
2021/01/22 00:24:38;;;;;;;3.80;1.80;;;;;;;;;;5135158;27;20105;-82
2021/01/22 00:27:03;;;;;;;2.37;1.60;;;;;;;;;;5136366;27;20029;-81
2021/01/22 00:29:28;;;;;;;2.47;1.33;;;;;;;;;;5134854;27;20023;-82
2021/01/22 00:31:53;;;;;;;5.10;1.70;;;;;;;;;;5127718;27;20079;-82
2021/01/22 00:34:18;;;;;;;2.07;1.60;;;;;;;;;;5122716;27;20035;-82
2021/01/22 00:36:44;;;;;;;1.83;1.60;;;;;;;;;;5136876;27;20024;-82
2021/01/22 00:39:09;;;;;;;2.80;2.00;;;;;;;;;;5136407;27;20106;-82
2021/01/22 00:41:34;;;;;;;2.10;1.90;;;;;;;;;;5135165;27;20439;-82
2021/01/22 00:43:59;;;;;;;2.13;1.70;;;;;;;;;;5136327;27;20022;-82
2021/01/22 00:46:25;;;;;;;2.17;1.77;;;;;;;;;;5134828;27;20023;-82
2021/01/22 00:48:50;;;;;;;2.50;1.93;;;;;;;;;;5134376;27;20023;-82
2021/01/22 00:51:15;;;;;;;2.30;1.80;;;;;;;;;;5134778;27;20530;-82
2021/01/22 00:53:40;;;;;;;2.03;1.53;;;;;;;;;;5134774;27;20105;-82
2021/01/22 00:56:06;;;;;;;2.77;1.97;;;;;;;;;;5135903;27;20058;-81
2021/01/22 00:58:31;;;;;;;2.30;1.67;;;;;;;;;;5134531;27;20462;-82
2021/01/22 01:00:56;;;;;;;2.50;1.80;;;;;;;;;;5134297;27;20019;-82
2021/01/22 01:03:21;;;;;;;2.13;1.83;;;;;;;;;;5134386;27;20027;-82
2021/01/22 01:05:46;;;;;;;3.10;2.37;;;;;;;;;;5135943;27;20038;-82
2021/01/22 01:08:12;;;;;;;4.17;2.70;;;;;;;;;;5134398;27;20681;-82
2021/01/22 01:10:37;;;;;;;4.70;2.80;;;;;;;;;;5134710;27;20417;-81
2021/01/22 01:13:02;;;;;;;5.17;2.87;;;;;;;;;;5134103;27;20429;-82
2021/01/22 01:15:27;;;;;;;3.67;2.80;;;;;;;;;;5134506;27;20011;-81
2021/01/22 01:17:53;;;;;;;4.87;3.03;;;;;;;;;;5133431;27;20076;-82
2021/01/22 01:20:18;;;;;;;4.20;3.60;;;;;;;;;;5133144;27;20023;-82
2021/01/22 01:22:43;;;;;;;4.80;3.43;;;;;;;;;;5134603;27;20019;-82
2021/01/22 01:25:09;;;;;;;5.20;3.20;;;;;;;;;;5133475;27;20020;-82
2021/01/22 01:27:34;;;;;;;4.23;3.03;;;;;;;;;;5132890;27;20024;-82
2021/01/22 01:29:59;;;;;;;3.90;2.87;;;;;;;;;;5133493;27;20473;-82
2021/01/22 01:32:25;;;;;;;5.03;3.63;;;;;;;;;;5132826;27;20023;-82
2021/01/22 01:34:50;;;;;;;4.23;3.10;;;;;;;;;;5133281;27;20454;-82
2021/01/22 01:37:15;;;;;;;4.20;3.20;;;;;;;;;;5134352;27;20030;-82
2021/01/22 01:39:40;;;;;;;3.80;2.80;;;;;;;;;;5134618;27;20015;-82
2021/01/22 01:42:05;;;;;;;4.77;2.60;;;;;;;;;;5133874;27;20023;-82
2021/01/22 01:44:31;;;;;;;2.27;1.83;;;;;;;;;;5133296;27;20408;-82
2021/01/22 01:46:56;;;;;;;3.20;1.60;;;;;;;;;;5132752;27;20023;-82
2021/01/22 01:49:21;;;;;;;2.90;1.50;;;;;;;;;;5132312;27;20055;-82
2021/01/22 01:51:47;;;;;;;4.70;1.70;;;;;;;;;;5133230;27;20019;-82
2021/01/22 01:54:12;;;;;;;2.20;1.50;;;;;;;;;;5133391;27;20035;-81
2021/01/22 01:56:38;;;;;;;4.27;1.67;;;;;;;;;;5133681;27;20017;-82
2021/01/22 01:59:03;;;;;;;3.20;1.70;;;;;;;;;;5133352;27;20019;-82
2021/01/22 02:01:29;;;;;;;2.40;1.67;;;;;;;;;;5133136;27;20019;-82
2021/01/22 02:03:56;;;;;;;3.10;1.70;;;;;;;;;;5133576;27;20015;-81
2021/01/22 02:06:21;;;;;;;2.43;1.80;;;;;;;;;;5133195;27;20019;-82
2021/01/22 02:08:46;;;;;;;2.73;1.87;;;;;;;;;;5133087;27;20019;-82
2021/01/22 02:11:12;;;;;;;1.40;1.30;;;;;;;;;;5134416;27;20035;-82
2021/01/22 02:13:39;;;;;;;3.23;2.20;;;;;;;;;;5132665;27;20031;-82
2021/01/22 02:16:04;;;;;;;2.00;1.77;;;;;;;;;;5133117;27;20007;-82
2021/01/22 02:18:29;;;;;;;4.03;2.00;;;;;;;;;;5125005;27;20094;-82
2021/01/22 02:21:04;;;;;;;3.17;2.10;;;;;;;;;;5132586;27;20015;-82
2021/01/22 02:23:32;;;;;;;4.30;2.73;;;;;;;;;;5132730;27;20027;-82
2021/01/22 02:26:10;;;;;;;3.80;2.40;;;;;;;;;;5132940;27;20023;-81
2021/01/22 02:28:35;;;;;;;4.80;2.70;;;;;;;;;;5132844;27;20098;-82
2021/01/22 02:31:01;;;;;;;5.43;2.93;;;;;;;;;;5132944;27;20054;-82
2021/01/22 02:33:26;;;;;;;3.77;2.70;;;;;;;;;;5132039;27;20068;-82
2021/01/22 02:35:53;;;;;;;5.33;2.60;;;;;;;;;;5132037;27;20015;-82
2021/01/22 02:38:20;;;;;;;4.90;2.90;;;;;;;;;;5131756;27;20015;-82
2021/01/22 02:40:46;;;;;;;3.50;3.00;;;;;;;;;;5132362;27;20015;-82
2021/01/22 02:43:12;;;;;;;3.87;3.00;;;;;;;;;;5131411;27;20114;-82
2021/01/22 02:45:37;;;;;;;4.17;2.90;;;;;;;;;;5132125;27;20154;-82
2021/01/22 02:48:03;;;;;;;6.77;3.50;;;;;;;;;;5131623;27;20030;-82
2021/01/22 02:50:31;;;;;;;4.77;2.93;;;;;;;;;;5131384;27;20401;-82
2021/01/22 02:53:00;;;;;;;4.07;3.10;;;;;;;;;;5131585;27;20151;-82
2021/01/22 02:55:26;;;;;;;5.93;3.07;;;;;;;;;;5131867;27;20476;-82
2021/01/22 02:58:12;;;;;;;6.50;3.30;;;;;;;;;;5130077;27;20023;-82
2021/01/22 03:00:40;;;;;;;7.30;3.53;;;;;;;;;;5129434;27;20095;-82
2021/01/22 03:03:06;;;;;;;4.80;3.17;;;;;;;;;;5132318;27;20038;-82
2021/01/22 03:05:31;;;;;;;6.57;3.70;;;;;;;;;;5132120;27;20019;-81
2021/01/22 03:08:09;;;;;;;5.70;3.53;;;;;;;;;;5132038;27;20143;-82
2021/01/22 03:10:35;;;;;;;7.07;3.33;;;;;;;;;;5132233;27;20034;-82
2021/01/22 03:13:01;;;;;;;4.53;3.30;;;;;;;;;;5132242;27;20022;-82
2021/01/22 03:15:26;;;;;;;4.73;3.43;;;;;;;;;;5133740;27;20026;-82
2021/01/22 03:18:08;;;;;;;5.60;3.30;;;;;;;;;;5131950;27;20047;-82
2021/01/22 03:20:34;;;;;;;6.40;3.55;;;;;;;;;;5132193;27;20546;-82
2021/01/22 03:22:59;;;;;;;5.93;3.30;;;;;;;;;;5131843;27;20057;-82
2021/01/22 03:25:24;;;;;;;5.90;3.70;;;;;;;;;;5131995;27;20031;-82
2021/01/22 03:27:49;;;;;;;7.67;3.30;;;;;;;;;;5131593;27;20419;-82
2021/01/22 03:30:15;;;;;;;4.77;3.57;;;;;;;;;;5131905;27;20042;-82
2021/01/22 03:32:40;;;;;;;5.23;3.40;;;;;;;;;;5130935;27;20531;-82
2021/01/22 03:35:05;;;;;;;5.27;3.40;;;;;;;;;;5131721;27;20019;-82
2021/01/22 03:37:31;;;;;;;7.77;4.20;;;;;;;;;;5133088;27;20067;-82
2021/01/22 03:39:56;;;;;;;5.53;3.43;;;;;;;;;;5133368;28;20019;-81
2021/01/22 03:42:21;;;;;;;8.70;3.50;;;;;;;;;;5132065;28;20075;-82
2021/01/22 03:44:46;;;;;;;7.63;3.67;;;;;;;;;;5131673;28;20023;-82
2021/01/22 03:47:11;;;;;;;4.47;3.23;;;;;;;;;;5131809;28;20110;-82
2021/01/22 03:49:37;;;;;;;6.67;3.00;;;;;;;;;;5131605;28;20492;-82
2021/01/22 03:52:02;;;;;;;7.47;3.50;;;;;;;;;;5132482;28;20030;-82
2021/01/22 03:54:27;;;;;;;6.03;3.30;;;;;;;;;;5131763;28;20102;-82
2021/01/22 03:56:53;;;;;;;8.23;4.00;;;;;;;;;;5131381;28;20019;-82
2021/01/22 03:59:18;;;;;;;6.23;3.13;;;;;;;;;;5133114;27;20418;-82
2021/01/22 04:01:43;;;;;;;6.57;3.50;;;;;;;;;;5131539;28;20065;-81
2021/01/22 04:04:08;;;;;;;6.47;3.70;;;;;;;;;;5131967;28;20102;-82
2021/01/22 04:06:35;;;;;;;7.47;4.13;;;;;;;;;;5132744;28;20053;-82
2021/01/22 04:09:00;;;;;;;7.93;3.83;;;;;;;;;;5131386;28;20416;-82
2021/01/22 04:11:26;;;;;;;9.53;3.37;;;;;;;;;;5131510;28;20027;-82
2021/01/22 04:13:51;;;;;;;6.13;3.27;;;;;;;;;;5131378;28;20024;-82
2021/01/22 04:16:16;;;;;;;6.40;3.40;;;;;;;;;;5132533;28;20477;-82
2021/01/22 04:18:41;;;;;;;5.13;3.10;;;;;;;;;;5131677;28;20019;-82
2021/01/22 04:21:06;;;;;;;6.93;3.40;;;;;;;;;;5131050;28;20454;-82
2021/01/22 04:23:32;;;;;;;7.47;3.40;;;;;;;;;;5132890;28;20019;-82
2021/01/22 04:25:57;;;;;;;6.30;3.27;;;;;;;;;;5131462;28;20027;-82
2021/01/22 04:28:22;;;;;;;6.30;3.17;;;;;;;;;;5132599;28;20054;-82
2021/01/22 04:30:47;;;;;;;7.67;3.53;;;;;;;;;;5131597;28;20034;-82
2021/01/22 04:33:12;;;;;;;7.03;2.50;;;;;;;;;;5132329;28;20068;-82
2021/01/22 04:35:38;;;;;;;4.60;2.80;;;;;;;;;;5131150;28;20038;-82
2021/01/22 04:38:03;;;;;;;7.03;3.30;;;;;;;;;;5131110;28;20018;-82
2021/01/22 04:40:28;;;;;;;9.53;3.30;;;;;;;;;;5131497;28;20054;-82
2021/01/22 04:42:53;;;;;;;9.30;4.00;;;;;;;;;;5134266;27;20015;-82
2021/01/22 04:45:18;;;;;;;7.60;3.43;;;;;;;;;;5134331;27;20118;-82
2021/01/22 04:47:44;;;;;;;4.93;2.83;;;;;;;;;;5135582;27;20419;-82
2021/01/22 04:50:10;;;;;;;7.60;3.63;;;;;;;;;;5134020;27;20018;-82
2021/01/22 04:52:36;;;;;;;10.10;3.40;;;;;;;;;;5135427;27;20038;-82
2021/01/22 04:55:02;;;;;;;9.90;3.70;;;;;;;;;;5135160;27;20490;-82
2021/01/22 04:57:29;;;;;;;9.37;3.97;;;;;;;;;;5134843;27;20011;-82
2021/01/22 04:59:55;;;;;;;6.43;3.43;;;;;;;;;;5134170;27;20018;-82
2021/01/22 05:02:20;;;;;;;7.97;3.07;;;;;;;;;;5133617;27;20440;-82
2021/01/22 05:04:45;;;;;;;7.17;2.87;;;;;;;;;;5134871;27;20464;-82
2021/01/22 05:07:11;;;;;;;7.17;3.33;;;;;;;;;;5133420;27;20023;-82
2021/01/22 05:09:36;;;;;;;8.90;2.90;;;;;;;;;;5134030;27;20058;-82
2021/01/22 05:12:02;;;;;;;11.90;3.70;;;;;;;;;;5133008;27;20075;-82
2021/01/22 05:14:28;;;;;;;10.37;3.67;;;;;;;;;;5132864;27;20019;-82
2021/01/22 05:16:59;;;;;;;9.67;3.50;;;;;;;;;;5134248;27;20102;-82
2021/01/22 05:19:25;;;;;;;11.48;3.20;;;;;;;;;;5135581;27;20019;-82
2021/01/22 05:21:50;;;;;;;9.33;3.27;;;;;;;;;;5134163;27;20064;-82
2021/01/22 05:24:18;;;;;;;6.77;3.20;;;;;;;;;;5134006;27;20039;-82
2021/01/22 05:26:44;;;;;;;6.77;3.27;;;;;;;;;;5133948;27;20012;-82
2021/01/22 05:29:14;;;;;;;7.10;3.10;;;;;;;;;;5134366;27;20022;-83
2021/01/22 05:31:39;;;;;;;9.70;3.30;;;;;;;;;;5134063;27;20067;-82
2021/01/22 05:34:04;;;;;;;11.40;3.47;;;;;;;;;;5134043;27;20470;-82
2021/01/22 05:36:30;;;;;;;7.87;3.83;;;;;;;;;;5133963;27;20027;-82
2021/01/22 05:38:56;;;;;;;11.20;3.50;;;;;;;;;;5135433;27;20010;-82
2021/01/22 05:41:22;;;;;;;11.67;3.40;;;;;;;;;;5133754;27;20043;-82
2021/01/22 05:43:47;;;;;;;7.17;3.67;;;;;;;;;;5133975;27;20110;-82
2021/01/22 05:46:20;;;;;;;7.23;3.97;;;;;;;;;;5135335;27;20019;-82
2021/01/22 05:48:45;;;;;;;9.10;3.17;;;;;;;;;;5135219;27;20007;-82
2021/01/22 05:51:11;;;;;;;11.67;3.43;;;;;;;;;;5134792;27;20027;-82
2021/01/22 05:53:47;;;;;;;11.70;3.57;;;;;;;;;;5133316;27;20068;-82
2021/01/22 05:56:13;;;;;;;9.80;3.37;;;;;;;;;;5133905;27;20125;-82
2021/01/22 05:58:40;;;;;;;7.97;3.00;;;;;;;;;;5133569;27;20204;-82
2021/01/22 06:01:13;;;;;;;9.23;3.30;;;;;;;;;;5133425;27;20322;-82
2021/01/22 06:03:38;;;;;;;;;;;;;;;;;;5133943;27;20084;-82
2021/01/22 06:06:04;;;;;;;10.73;3.55;;;;;;;;;;5134935;27;19919;-82
2021/01/22 06:08:29;;;;;;;8.47;3.33;;;;;;;;;;5133118;27;20026;-82
2021/01/22 06:10:54;;;;;;;6.80;3.23;;;;;;;;;;5134599;27;20419;-82
2021/01/22 06:13:24;;;;;;;8.53;3.10;;;;;;;;;;5134453;27;20022;-82
2021/01/22 06:15:53;;;;;;;10.87;3.27;;;;;;;;;;5133197;27;20019;-82
2021/01/22 06:18:22;;;;;;;8.27;4.23;;;;;;;;;;5134409;27;20385;-82
2021/01/22 06:20:48;;;;;;;11.80;4.33;;;;;;;;;;5132811;27;20026;-82
2021/01/22 06:23:14;;;;;;;8.03;3.30;;;;;;;;;;5133002;27;20075;-82
2021/01/22 06:25:40;;;;;;;12.73;3.97;;;;;;;;;;5134395;27;20079;-82
2021/01/22 06:28:06;;;;;;;9.07;3.67;;;;;;;;;;5132737;27;20039;-82
2021/01/22 06:30:32;;;;;;;8.40;3.97;;;;;;;;;;5133489;27;20027;-82
2021/01/22 06:32:58;;;;;;;8.97;3.90;;;;;;;;;;5132749;27;20035;-82
2021/01/22 06:35:25;;;;;;;13.50;4.40;;;;;;;;;;5133031;27;20141;-82
2021/01/22 06:37:52;;;;;;;8.73;3.90;;;;;;;;;;5134179;27;20019;-82
2021/01/22 06:40:18;;;;;;;12.90;3.97;;;;;;;;;;5134186;27;20027;-82
2021/01/22 06:42:43;;;;;;;10.27;4.83;;;;;;;;;;5132766;27;20027;-82
2021/01/22 06:45:08;;;;;;;11.40;4.30;;;;;;;;;;5132474;27;20458;-82
2021/01/22 06:47:34;;;;;;;10.03;4.23;;;;;;;;;;5132656;27;20525;-82
2021/01/22 06:49:59;;;;;;;10.27;4.27;;;;;;;;;;5132408;27;20367;-82
2021/01/22 06:52:24;;;;;;;9.97;4.90;;;;;;;;;;5132586;27;20015;-82
2021/01/22 06:55:03;;;;;;;12.47;4.30;;;;;;;;;;5133987;27;20450;-82
2021/01/22 06:57:28;;;;;;;10.80;4.50;;;;;;;;;;5129011;27;20104;-82
2021/01/22 06:59:53;;;;;;;10.47;4.50;;;;;;;;;;5125549;27;20128;-82
2021/01/22 07:02:38;;;;;;;10.83;4.37;;;;;;;;;;5131912;27;20019;-82
2021/01/22 07:05:22;;;;;;;12.13;5.20;;;;;;;;;;5132112;27;20446;-82
2021/01/22 07:07:47;;;;;;;10.23;4.93;;;;;;;;;;5121012;27;20086;-82
2021/01/22 07:10:13;;;;;;;11.47;5.33;;;;;;;;;;5133753;27;20130;-82
2021/01/22 07:12:39;;;;;;;8.77;5.03;;;;;;;;;;5131851;27;20015;-82
2021/01/22 07:15:24;;;;;;;12.13;4.93;;;;;;;;;;5132009;27;20019;-82
2021/01/22 07:17:50;;;;;;;11.80;5.23;;;;;;;;;;5159231;27;20027;-82
2021/01/22 07:20:15;;;;;;;11.83;5.47;;;;;;;;;;5129985;27;20436;-82
2021/01/22 07:22:57;;;;;;;10.60;5.83;;;;;;;;;;5131332;27;20015;-82
2021/01/22 07:25:29;;;;;;;16.97;6.20;;;;;;;;;;5133448;27;20031;-82
2021/01/22 07:27:54;;;;;;;;;;;;;;;;;;5133500;27;20394;-82
2021/01/22 07:30:20;;;;;;;15.93;7.03;;;;;;;;;;5131860;27;20369;-82
2021/01/22 07:32:48;;;;;;;20.60;6.37;;;;;;;;;;5131443;27;20365;-83
2021/01/22 07:35:23;;;;;;;13.07;6.43;;;;;;;;;;5131722;27;20103;-82
2021/01/22 07:37:49;;;;;;;10.57;6.03;;;;;;;;;;5130343;27;20439;-83
2021/01/22 07:40:15;;;;;;;15.70;7.87;;;;;;;;;;5131574;27;20023;-83
2021/01/22 07:42:41;;;;;;;15.10;7.43;;;;;;;;;;5131084;27;20023;-82
2021/01/22 07:45:16;;;;;;;14.63;7.20;;;;;;;;;;5130465;28;20031;-83
2021/01/22 07:47:42;;;;;;;16.13;7.30;;;;;;;;;;5131942;27;20038;-83
2021/01/22 07:50:12;;;;;;;13.90;6.30;;;;;;;;;;5134183;27;20034;-83
2021/01/22 07:52:38;;;;;;;14.30;7.40;;;;;;;;;;5120526;28;20057;-83
2021/01/22 07:55:04;;;;;;;11.93;7.00;;;;;;;;;;5125804;27;20031;-83
2021/01/22 07:57:29;;;;;;;14.30;6.80;;;;;;;;;;5131136;28;20035;-83
2021/01/22 07:59:57;;;;;;;15.93;7.07;;;;;;;;;;5133082;27;20022;-83
2021/01/22 08:02:23;;;;;;;13.20;6.63;;;;;;;;;;5129755;28;20024;-83
2021/01/22 08:05:07;;;;;;;14.60;7.17;;;;;;;;;;5131241;28;20049;-83
2021/01/22 08:07:34;;;;;;;19.90;9.57;;;;;;;;;;5129831;28;20533;-83
2021/01/22 08:09:59;;;;;;;15.83;7.67;;;;;;;;;;5128930;28;20081;-83
2021/01/22 08:12:24;;;;;;;15.43;7.43;;;;;;;;;;5132357;28;20035;-83
2021/01/22 08:14:50;;;;;;;13.67;7.67;;;;;;;;;;5131162;28;20023;-83
2021/01/22 08:17:16;;;;;;;15.40;7.80;;;;;;;;;;5133117;27;20015;-83
2021/01/22 08:19:42;;;;;;;20.30;7.17;;;;;;;;;;5124768;27;20024;-83
2021/01/22 08:22:07;;;;;;;13.87;7.63;;;;;;;;;;5135187;27;20015;-83
2021/01/22 08:24:32;;;;;;;13.67;6.80;;;;;;;;;;5135232;27;20465;-83
2021/01/22 08:26:59;;;;;;;13.00;6.90;;;;;;;;;;5135299;27;20484;-83
2021/01/22 08:29:25;;;;;;;15.83;7.23;;;;;;;;;;5134980;27;20019;-83
2021/01/22 08:31:50;;;;;;;13.57;7.20;;;;;;;;;;5134223;27;20015;-83
2021/01/22 08:34:15;;;;;;;12.07;6.93;;;;;;;;;;5134755;27;20027;-82
2021/01/22 08:36:41;;;;;;;13.27;6.80;;;;;;;;;;5134601;27;20152;-84
2021/01/22 08:39:06;;;;;;;15.07;6.43;;;;;;;;;;5134918;27;20470;-84
2021/01/22 08:41:31;;;;;;;13.17;6.60;;;;;;;;;;5134409;27;20026;-84
2021/01/22 08:43:56;;;;;;;22.53;7.53;;;;;;;;;;5134474;27;20499;-84
2021/01/22 08:46:23;;;;;;;15.43;6.83;;;;;;;;;;5135637;27;20023;-84
2021/01/22 08:48:48;;;;;;;15.83;6.77;;;;;;;;;;5134035;27;20047;-84
2021/01/22 08:51:14;;;;;;;13.37;6.67;;;;;;;;;;5134444;27;20062;-84
2021/01/22 08:53:49;;;;;;;18.63;6.53;;;;;;;;;;5135484;27;20023;-84
2021/01/22 08:56:16;;;;;;;15.23;6.63;;;;;;;;;;5134653;27;20346;-83
2021/01/22 08:58:56;;;;;;;17.73;8.43;;;;;;;;;;5133051;27;20064;-83
2021/01/22 09:01:22;;;;;;;21.50;7.60;;;;;;;;;;5140725;27;20328;-83
2021/01/22 09:03:47;;;;;;;13.90;7.93;;;;;;;;;;5133782;27;20011;-83
2021/01/22 09:06:12;;;;;;;17.97;7.10;;;;;;;;;;5133819;27;20023;-83
2021/01/22 09:08:53;;;;;;;17.03;6.67;;;;;;;;;;5134134;27;20016;-83
2021/01/22 09:11:34;;;;;;;14.33;7.00;;;;;;;;;;5135358;27;20051;-83
2021/01/22 09:13:59;;;;;;;10.63;5.70;;;;;;;;;;5134267;27;20410;-83
2021/01/22 09:16:24;;;;;;;10.27;5.67;;;;;;;;;;5134349;27;20015;-83
2021/01/22 09:18:57;;;;;;;12.23;6.10;;;;;;;;;;5134243;27;20050;-83
2021/01/22 09:21:22;;;;;;;10.53;5.33;;;;;;;;;;5133148;27;20023;-82
2021/01/22 09:23:47;;;;;;;13.83;6.07;;;;;;;;;;5133653;27;20130;-83
2021/01/22 09:26:12;;;;;;;11.50;5.83;;;;;;;;;;5134111;27;20023;-83
2021/01/22 09:28:38;;;;;;;16.30;5.67;;;;;;;;;;5132416;27;20439;-83
2021/01/22 09:31:03;;;;;;;12.70;6.00;;;;;;;;;;5132758;27;20113;-83
2021/01/22 09:33:28;;;;;;;13.40;4.93;;;;;;;;;;5134275;27;20038;-83
2021/01/22 09:35:53;;;;;;;8.93;4.77;;;;;;;;;;5132634;27;20011;-83
2021/01/22 09:38:19;;;;;;;12.63;5.10;;;;;;;;;;5133159;27;20487;-83
2021/01/22 09:40:44;;;;;;;15.17;4.77;;;;;;;;;;5133659;27;20121;-83
2021/01/22 09:43:09;;;;;;;16.60;5.13;;;;;;;;;;5134386;27;20038;-83
2021/01/22 09:45:34;;;;;;;13.77;5.80;;;;;;;;;;5133749;27;20023;-83
2021/01/22 09:47:59;;;;;;;13.77;4.70;;;;;;;;;;5133839;27;20030;-83
2021/01/22 09:50:25;;;;;;;13.20;4.73;;;;;;;;;;5133674;27;20438;-83
2021/01/22 09:52:50;;;;;;;13.47;4.90;;;;;;;;;;5133095;27;20031;-82
2021/01/22 09:55:16;;;;;;;13.83;4.57;;;;;;;;;;5133291;27;20033;-83
2021/01/22 09:57:41;;;;;;;13.80;5.00;;;;;;;;;;5132355;27;20042;-83
2021/01/22 10:00:08;;;;;;;14.33;4.60;;;;;;;;;;5132851;27;20061;-83
2021/01/22 10:02:33;;;;;;;8.40;4.00;;;;;;;;;;5134809;27;20027;-83
2021/01/22 10:04:59;;;;;;;11.53;4.50;;;;;;;;;;5133344;27;20080;-83
2021/01/22 10:07:24;;;;;;;17.50;6.30;;;;;;;;;;5133500;27;20110;-82
2021/01/22 10:09:50;;;;;;;13.30;5.27;;;;;;;;;;5133289;27;20035;-83
2021/01/22 10:12:15;;;;;;;17.63;5.13;;;;;;;;;;5133006;27;20031;-83
2021/01/22 10:14:40;;;;;;;13.47;4.77;;;;;;;;;;5132652;27;20019;-83
2021/01/22 10:17:05;;;;;;;9.30;4.17;;;;;;;;;;5134284;27;20071;-83
2021/01/22 10:19:31;;;;;;;14.97;4.20;;;;;;;;;;5134530;27;20458;-83
2021/01/22 10:21:56;;;;;;;12.13;4.70;;;;;;;;;;5133156;27;20011;-83
2021/01/22 10:24:21;;;;;;;12.50;4.87;;;;;;;;;;5132907;27;20019;-83
2021/01/22 10:26:47;;;;;;;13.87;4.50;;;;;;;;;;5132998;27;20026;-83
2021/01/22 10:29:12;;;;;;;10.23;4.57;;;;;;;;;;5132749;27;20047;-83
2021/01/22 10:31:37;;;;;;;19.70;4.67;;;;;;;;;;5132173;27;20377;-83
2021/01/22 10:34:03;;;;;;;13.83;5.00;;;;;;;;;;5133387;27;20461;-83
2021/01/22 10:36:28;;;;;;;10.50;4.33;;;;;;;;;;5131944;27;20520;-83
2021/01/22 10:38:53;;;;;;;11.60;4.53;;;;;;;;;;5132330;27;20106;-83
2021/01/22 10:41:18;;;;;;;9.33;4.33;;;;;;;;;;5131466;27;20011;-82
2021/01/22 10:43:44;;;;;;;11.53;5.00;;;;;;;;;;5132213;27;20034;-83
2021/01/22 10:46:10;;;;;;;12.13;4.73;;;;;;;;;;5133437;27;20027;-83
2021/01/22 10:48:35;;;;;;;15.20;4.47;;;;;;;;;;5132899;27;20023;-83
2021/01/22 10:51:00;;;;;;;13.43;5.33;;;;;;;;;;5131719;27;20374;-83
2021/01/22 10:53:25;;;;;;;18.70;4.90;;;;;;;;;;5131676;27;20075;-83
2021/01/22 10:55:51;;;;;;;18.40;4.03;;;;;;;;;;5131928;27;20022;-83
2021/01/22 10:58:16;;;;;;;14.40;4.90;;;;;;;;;;5131138;27;20026;-83
2021/01/22 11:00:42;;;;;;;15.97;4.60;;;;;;;;;;5130808;27;20095;-83
2021/01/22 11:03:07;;;;;;;18.33;6.07;;;;;;;;;;5132313;27;20650;-83
2021/01/22 11:05:33;;;;;;;10.43;4.60;;;;;;;;;;5132220;27;20080;-83
2021/01/22 11:07:59;;;;;;;12.23;5.07;;;;;;;;;;5132326;27;20011;-83
2021/01/22 11:10:25;;;;;;;10.80;4.67;;;;;;;;;;5131328;27;20100;-83
2021/01/22 11:12:50;;;;;;;19.17;5.10;;;;;;;;;;5131140;27;20027;-82
2021/01/22 11:15:15;;;;;;;12.47;4.93;;;;;;;;;;5131656;27;20474;-83
2021/01/22 11:17:40;;;;;;;14.30;4.87;;;;;;;;;;5130727;27;20018;-83
2021/01/22 11:20:06;;;;;;;9.70;4.53;;;;;;;;;;5132968;27;20041;-83
2021/01/22 11:22:32;;;;;;;14.73;4.90;;;;;;;;;;5128537;27;20062;-83
2021/01/22 11:24:57;;;;;;;13.77;5.00;;;;;;;;;;5126899;27;20022;-82
2021/01/22 11:27:22;;;;;;;15.50;5.20;;;;;;;;;;5127741;27;20107;-83
2021/01/22 11:29:48;;;;;;;12.47;5.00;;;;;;;;;;5131794;27;20351;-82
2021/01/22 11:32:13;;;;;;;14.77;5.33;;;;;;;;;;5131759;27;20055;-83
2021/01/22 11:34:38;;;;;;;13.57;5.70;;;;;;;;;;5131872;27;20152;-82
2021/01/22 11:37:03;;;;;;;16.13;6.00;;;;;;;;;;5130480;27;20033;-83
2021/01/22 11:39:30;;;;;;;16.17;5.93;;;;;;;;;;5131956;27;20441;-82
2021/01/22 11:41:56;;;;;;;16.27;5.40;;;;;;;;;;5128859;27;20072;-82
2021/01/22 11:44:21;;;;;;;18.33;6.87;;;;;;;;;;5132159;27;20047;-83
2021/01/22 11:46:46;;;;;;;15.17;5.63;;;;;;;;;;5131469;28;20037;-82
2021/01/22 11:49:11;;;;;;;12.13;5.37;;;;;;;;;;5131796;28;20015;-82
2021/01/22 11:51:36;;;;;;;12.67;5.10;;;;;;;;;;5131241;27;20394;-83
2021/01/22 11:54:04;;;;;;;21.33;6.83;;;;;;;;;;5134794;27;20633;-82
2021/01/22 11:56:29;;;;;;;15.90;5.20;;;;;;;;;;5136298;27;20019;-83
2021/01/22 11:58:54;;;;;;;19.47;5.50;;;;;;;;;;5135792;27;20019;-83
2021/01/22 12:01:20;;;;;;;14.60;5.00;;;;;;;;;;5135290;27;20477;-82
2021/01/22 12:03:45;;;;;;;19.30;6.00;;;;;;;;;;5135804;27;20494;-82
2021/01/22 12:06:10;;;;;;;18.23;7.07;;;;;;;;;;5135368;27;20145;-83
2021/01/22 12:08:35;;;;;;;15.63;4.27;;;;;;;;;;5136295;27;20470;-82
2021/01/22 12:11:00;;;;;;;21.50;4.50;;;;;;;;;;5135946;27;20019;-83
2021/01/22 12:13:25;;;;;;;16.70;4.67;;;;;;;;;;5134948;27;20079;-83
2021/01/22 12:15:51;;;;;;;17.00;5.30;;;;;;;;;;5135281;27;20015;-83
2021/01/22 12:18:16;;;;;;;15.10;3.47;;;;;;;;;;5134698;27;20047;-83
2021/01/22 12:20:43;;;;;;;9.80;3.07;;;;;;;;;;5136442;27;20023;-83
2021/01/22 12:23:09;;;;;;;15.77;3.80;;;;;;;;;;5134251;27;20106;-83
2021/01/22 12:25:34;;;;;;;12.63;3.33;;;;;;;;;;5133724;27;20066;-83
2021/01/22 12:27:59;;;;;;;16.30;3.20;;;;;;;;;;5136597;27;20019;-83
2021/01/22 12:30:24;;;;;;;15.63;3.57;;;;;;;;;;5134827;27;20362;-83
2021/01/22 12:32:50;;;;;;;14.30;2.93;;;;;;;;;;5136264;27;20118;-83
2021/01/22 12:35:16;;;;;;;12.10;2.83;;;;;;;;;;5134649;27;20055;-83
2021/01/22 12:37:41;;;;;;;8.50;2.17;;;;;;;;;;5133825;27;20024;-83
2021/01/22 12:40:07;;;;;;;15.67;2.23;;;;;;;;;;5133698;27;20537;-83
2021/01/22 12:42:32;;;;;;;11.23;2.07;;;;;;;;;;5131064;27;20129;-83
2021/01/22 12:44:57;;;;;;;13.63;2.23;;;;;;;;;;5134364;27;20466;-83
2021/01/22 12:47:22;;;;;;;8.13;1.80;;;;;;;;;;5132253;27;20034;-83
2021/01/22 12:49:48;;;;;;;10.57;1.80;;;;;;;;;;5133225;27;20026;-83
2021/01/22 12:52:13;;;;;;;16.03;3.20;;;;;;;;;;5134168;27;20023;-83
2021/01/22 12:54:38;;;;;;;9.97;2.13;;;;;;;;;;5134765;27;20470;-83
2021/01/22 12:57:03;;;;;;;9.87;2.07;;;;;;;;;;5134402;27;20025;-83
2021/01/22 12:59:28;;;;;;;7.30;1.77;;;;;;;;;;5134870;27;20322;-83
2021/01/22 13:01:54;;;;;;;8.63;1.53;;;;;;;;;;5133646;27;20458;-83
2021/01/22 13:04:19;;;;;;;11.97;1.83;;;;;;;;;;5134037;27;20308;-83
2021/01/22 13:06:44;;;;;;;10.50;1.87;;;;;;;;;;5134544;27;20019;-84
2021/01/22 13:09:10;;;;;;;12.70;1.70;;;;;;;;;;5135725;27;20039;-83
2021/01/22 13:11:35;;;;;;;5.57;1.40;;;;;;;;;;5134533;27;20019;-84
2021/01/22 13:14:00;;;;;;;6.90;1.63;;;;;;;;;;5134257;27;20102;-83
2021/01/22 13:16:25;;;;;;;11.07;1.90;;;;;;;;;;5134380;27;20485;-84
2021/01/22 13:18:51;;;;;;;9.20;1.47;;;;;;;;;;5135816;27;20015;-84
2021/01/22 13:21:16;;;;;;;11.53;1.83;;;;;;;;;;5133757;27;20019;-84
2021/01/22 13:23:41;;;;;;;5.57;1.33;;;;;;;;;;5134519;27;20031;-84
2021/01/22 13:26:07;;;;;;;6.03;1.40;;;;;;;;;;5134172;27;20374;-84
2021/01/22 13:28:32;;;;;;;5.80;1.23;;;;;;;;;;5134363;27;20103;-84
2021/01/22 13:30:57;;;;;;;7.97;1.60;;;;;;;;;;5134082;27;20041;-84
2021/01/22 13:33:23;;;;;;;7.00;1.60;;;;;;;;;;5134879;27;20114;-84
2021/01/22 13:35:48;;;;;;;8.17;1.77;;;;;;;;;;5135397;27;20099;-84
2021/01/22 13:38:13;;;;;;;10.37;1.77;;;;;;;;;;5133884;27;20015;-84
2021/01/22 13:40:38;;;;;;;9.37;1.77;;;;;;;;;;5134298;27;20007;-85
2021/01/22 13:43:03;;;;;;;6.00;1.50;;;;;;;;;;5133862;27;20027;-84
2021/01/22 13:45:30;;;;;;;7.97;2.03;;;;;;;;;;5133857;27;20043;-84
2021/01/22 13:47:56;;;;;;;7.77;1.37;;;;;;;;;;5134007;27;20034;-84
2021/01/22 13:50:21;;;;;;;7.47;1.30;;;;;;;;;;5133163;27;20072;-84
2021/01/22 13:52:46;;;;;;;8.37;1.70;;;;;;;;;;5133617;27;20027;-84
2021/01/22 13:55:12;;;;;;;9.10;2.00;;;;;;;;;;5133726;27;20060;-84
2021/01/22 13:57:37;;;;;;;7.57;1.53;;;;;;;;;;5133248;27;20022;-84
2021/01/22 14:00:03;;;;;;;9.00;1.83;;;;;;;;;;5134997;27;20517;-83
2021/01/22 14:02:28;;;;;;;12.40;1.80;;;;;;;;;;5133699;27;20476;-83
2021/01/22 14:04:53;;;;;;;10.23;1.50;;;;;;;;;;5134980;27;20159;-84
2021/01/22 14:07:18;;;;;;;5.90;1.37;;;;;;;;;;5134768;27;20362;-83
2021/01/22 14:09:44;;;;;;;11.37;1.40;;;;;;;;;;5133112;27;20030;-85
2021/01/22 14:12:09;;;;;;;9.90;1.77;;;;;;;;;;5132267;27;20027;-84
2021/01/22 14:14:34;;;;;;;7.53;1.57;;;;;;;;;;5133401;27;20035;-83
2021/01/22 14:16:59;;;;;;;8.37;1.33;;;;;;;;;;5134534;27;20015;-83
2021/01/22 14:19:24;;;;;;;9.70;1.37;;;;;;;;;;5132198;27;20540;-83
2021/01/22 14:21:50;;;;;;;11.60;1.40;;;;;;;;;;5134281;27;20084;-84
2021/01/22 14:24:15;;;;;;;6.13;1.57;;;;;;;;;;5133232;27;20061;-83
2021/01/22 14:26:40;;;;;;;8.57;1.60;;;;;;;;;;5133102;27;20046;-83
2021/01/22 14:29:05;;;;;;;5.73;1.30;;;;;;;;;;5130748;27;20031;-83
2021/01/22 14:31:30;;;;;;;7.63;1.17;;;;;;;;;;5129372;27;20017;-83